createdAt,value
2023-05-12T00:01:14.593Z,67.26
2023-05-12T00:03:42.890Z,67.25
2023-05-12T00:06:11.652Z,67.22
2023-05-12T00:08:39.832Z,67.37
2023-05-12T00:11:08.104Z,67.29
2023-05-12T00:13:36.353Z,67.34
2023-05-12T00:16:05.305Z,67.54
2023-05-12T00:18:33.579Z,67.63
2023-05-12T00:21:01.916Z,67.63
2023-05-12T00:23:30.088Z,67.50
2023-05-12T00:25:58.366Z,67.49
2023-05-12T00:28:26.546Z,67.92
2023-05-12T00:30:54.607Z,67.61
2023-05-12T00:33:23.090Z,67.92
2023-05-12T00:35:51.871Z,68.11
2023-05-12T00:38:20.149Z,68.14
2023-05-12T00:40:48.323Z,68.29
2023-05-12T00:43:16.505Z,68.58
2023-05-12T00:45:44.810Z,68.41
2023-05-12T00:48:13.878Z,68.65
2023-05-12T00:50:42.139Z,68.88
2023-05-12T00:53:10.717Z,69.02
2023-05-12T00:55:38.892Z,69.13
2023-05-12T00:58:08.420Z,69.02
2023-05-12T01:00:37.505Z,69.18
2023-05-12T01:03:06.233Z,69.51
2023-05-12T01:06:00.664Z,69.59
2023-05-12T01:08:29.871Z,69.70
2023-05-12T01:10:58.131Z,69.56
2023-05-12T01:13:27.946Z,69.53
2023-05-12T01:15:56.938Z,69.65
2023-05-12T01:18:27.829Z,69.79
2023-05-12T01:20:57.071Z,70.00
2023-05-12T01:23:29.842Z,69.79
2023-05-12T01:26:08.487Z,70.02
2023-05-12T01:28:38.196Z,69.60
2023-05-12T01:31:08.455Z,69.76
2023-05-12T01:33:40.155Z,69.66
2023-05-12T01:36:09.041Z,69.48
2023-05-12T01:38:37.929Z,69.54
2023-05-12T01:41:06.515Z,69.31
2023-05-12T01:43:34.986Z,69.28
2023-05-12T01:46:04.337Z,69.41
2023-05-12T01:48:32.764Z,69.90
2023-05-12T01:51:02.063Z,70.10
2023-05-12T01:53:30.443Z,70.20
2023-05-12T01:55:58.614Z,69.76
2023-05-12T01:58:28.115Z,69.54
2023-05-12T02:00:56.488Z,69.76
2023-05-12T02:03:25.373Z,69.95
2023-05-12T02:05:53.655Z,70.23
2023-05-12T02:08:21.933Z,70.34
2023-05-12T02:10:50.106Z,70.77
2023-05-12T02:13:18.586Z,71.13
2023-05-12T02:15:46.653Z,71.21
2023-05-12T02:18:14.923Z,71.10
2023-05-12T02:20:43.724Z,71.24
2023-05-12T02:23:11.885Z,71.29
2023-05-12T02:25:41.084Z,71.52
2023-05-12T02:28:12.024Z,71.97
2023-05-12T02:30:46.235Z,72.06
2023-05-12T02:33:16.146Z,72.10
2023-05-12T02:35:45.035Z,72.14
2023-05-12T02:38:13.822Z,72.49
2023-05-12T02:40:42.516Z,72.36
2023-05-12T02:43:10.682Z,72.46
2023-05-12T02:45:39.385Z,72.67
2023-05-12T02:48:07.859Z,72.70
2023-05-12T02:50:36.015Z,72.62
2023-05-12T02:53:04.216Z,72.64
2023-05-12T02:55:32.568Z,72.85
2023-05-12T02:58:01.254Z,73.09
2023-05-12T03:00:29.642Z,73.30
2023-05-12T03:02:58.152Z,73.07
2023-05-12T03:05:26.596Z,73.42
2023-05-12T03:07:55.172Z,73.37
2023-05-12T03:10:23.633Z,73.50
2023-05-12T03:12:52.024Z,73.50
2023-05-12T03:15:20.203Z,73.86
2023-05-12T03:17:48.647Z,73.92
2023-05-12T03:20:17.629Z,74.22
2023-05-12T03:22:46.560Z,74.19
2023-05-12T03:25:14.832Z,74.26
2023-05-12T03:27:43.564Z,74.44
2023-05-12T03:30:12.606Z,74.55
2023-05-12T03:32:40.850Z,74.70
2023-05-12T03:35:10.817Z,74.62
2023-05-12T03:37:39.278Z,74.83
2023-05-12T03:40:08.782Z,75.00
2023-05-12T03:42:36.952Z,74.88
2023-05-12T03:45:07.255Z,74.94
2023-05-12T03:47:36.357Z,75.01
2023-05-12T03:50:05.371Z,75.24
2023-05-12T03:52:33.946Z,75.51
2023-05-12T03:55:02.729Z,75.69
2023-05-12T03:57:31.106Z,75.50
2023-05-12T03:59:59.278Z,75.68
2023-05-12T04:02:27.606Z,75.70
2023-05-12T04:04:56.139Z,75.95
2023-05-12T04:07:24.307Z,76.06
2023-05-12T04:09:52.485Z,76.16
2023-05-12T04:12:20.653Z,76.34
2023-05-12T04:14:48.745Z,76.27
2023-05-12T04:17:19.321Z,76.51
2023-05-12T04:19:47.527Z,76.58
2023-05-12T04:22:15.803Z,76.43
2023-05-12T04:24:43.986Z,76.68
2023-05-12T04:27:12.395Z,76.55
2023-05-12T04:29:40.657Z,76.44
2023-05-12T04:32:09.237Z,76.59
2023-05-12T04:34:38.094Z,76.29
2023-05-12T04:37:06.687Z,75.99
2023-05-12T04:39:35.541Z,76.04
2023-05-12T04:42:04.665Z,75.73
2023-05-12T04:44:36.622Z,75.25
2023-05-12T04:47:05.313Z,74.98
2023-05-12T04:49:33.586Z,74.38
2023-05-12T04:52:01.855Z,74.08
2023-05-12T04:54:30.004Z,73.98
2023-05-12T04:56:58.507Z,73.23
2023-05-12T04:59:26.793Z,72.73
2023-05-12T05:01:56.383Z,72.61
2023-05-12T05:04:24.869Z,72.20
2023-05-12T05:06:55.706Z,71.99
2023-05-12T05:09:24.488Z,71.69
2023-05-12T05:11:52.966Z,71.20
2023-05-12T05:14:22.664Z,71.19
2023-05-12T05:16:51.086Z,70.78
2023-05-12T05:19:22.587Z,70.60
2023-05-12T05:21:58.661Z,70.32
2023-05-12T05:24:26.937Z,70.13
2023-05-12T05:26:55.813Z,69.78
2023-05-12T05:29:24.102Z,69.57
2023-05-12T05:31:53.179Z,69.12
2023-05-12T05:34:21.510Z,68.93
2023-05-12T05:36:50.286Z,68.33
2023-05-12T05:39:18.532Z,67.49
2023-05-12T05:41:46.703Z,67.70
2023-05-12T05:44:15.903Z,67.32
2023-05-12T05:46:44.106Z,66.60
2023-05-12T05:49:12.755Z,66.39
2023-05-12T05:51:40.928Z,65.95
2023-05-12T05:54:09.304Z,65.52
2023-05-12T05:56:37.478Z,65.13
2023-05-12T05:59:06.566Z,64.79
2023-05-12T06:01:34.790Z,64.46
2023-05-12T06:04:03.060Z,64.53
2023-05-12T06:06:31.698Z,64.47
2023-05-12T06:09:01.304Z,64.10
2023-05-12T06:11:29.688Z,63.87
2023-05-12T06:13:58.057Z,63.40
2023-05-12T06:16:27.832Z,62.59
2023-05-12T06:18:56.008Z,62.53
2023-05-12T06:21:24.315Z,62.29
2023-05-12T06:23:54.945Z,62.00
2023-05-12T06:26:23.118Z,61.82
2023-05-12T06:28:51.297Z,61.53
2023-05-12T06:31:19.490Z,61.30
2023-05-12T06:33:48.874Z,61.18
2023-05-12T06:36:17.050Z,60.94
2023-05-12T06:38:45.210Z,60.49
2023-05-12T06:41:14.529Z,60.50
2023-05-12T06:43:43.708Z,60.50
2023-05-12T06:46:12.513Z,60.60
2023-05-12T06:48:40.666Z,60.76
2023-05-12T06:51:09.551Z,60.33
2023-05-12T06:53:38.348Z,60.38
2023-05-12T06:56:06.478Z,60.11
2023-05-12T06:58:35.018Z,60.25
2023-05-12T07:01:03.299Z,60.16
2023-05-12T07:03:33.540Z,59.40
2023-05-12T07:06:01.885Z,59.16
2023-05-12T07:08:30.245Z,58.63
2023-05-12T07:11:00.983Z,58.73
2023-05-12T07:13:29.250Z,58.11
2023-05-12T07:15:57.395Z,57.51
2023-05-12T07:18:25.838Z,57.17
2023-05-12T07:20:54.187Z,56.95
2023-05-12T07:23:22.550Z,56.90
2023-05-12T07:25:50.724Z,56.69
2023-05-12T07:28:19.107Z,56.44
2023-05-12T07:30:47.479Z,56.22
2023-05-12T07:33:15.661Z,56.06
2023-05-12T07:35:43.924Z,55.88
2023-05-12T07:38:11.994Z,55.62
2023-05-12T07:40:40.265Z,55.70
2023-05-12T07:43:08.441Z,55.07
2023-05-12T07:45:36.846Z,54.57
2023-05-12T07:48:05.071Z,54.34
2023-05-12T07:50:33.268Z,54.19
2023-05-12T07:53:01.451Z,54.35
2023-05-12T07:55:29.822Z,54.24
2023-05-12T07:57:57.986Z,54.14
2023-05-12T08:00:26.267Z,54.20
2023-05-12T08:02:55.730Z,53.43
2023-05-12T08:05:24.045Z,53.01
2023-05-12T08:07:52.524Z,52.45
2023-05-12T08:10:20.701Z,52.14
2023-05-12T08:12:48.865Z,51.94
2023-05-12T08:15:17.048Z,51.87
2023-05-12T08:17:45.259Z,51.32
2023-05-12T08:20:14.125Z,51.10
2023-05-12T08:22:42.375Z,50.50
2023-05-12T08:25:12.600Z,50.27
2023-05-12T08:27:41.596Z,50.13
2023-05-12T08:30:10.585Z,49.92
2023-05-12T08:32:38.913Z,49.58
2023-05-12T08:35:07.634Z,49.27
2023-05-12T08:37:35.922Z,48.52
2023-05-12T08:40:14.005Z,48.61
2023-05-12T08:42:50.586Z,48.32
2023-05-12T08:45:19.144Z,48.24
2023-05-12T08:47:47.872Z,48.34
2023-05-12T08:50:18.155Z,48.14
2023-05-12T08:52:46.663Z,47.88
2023-05-12T08:55:15.149Z,47.41
2023-05-12T08:57:45.885Z,47.09
2023-05-12T09:00:14.866Z,46.64
2023-05-12T09:02:53.061Z,46.50
2023-05-12T09:05:23.548Z,45.90
2023-05-12T09:07:52.376Z,45.69
2023-05-12T09:10:34.527Z,45.42
2023-05-12T09:13:09.126Z,45.19
2023-05-12T09:15:40.144Z,45.22
2023-05-12T09:18:08.343Z,45.02
2023-05-12T09:20:36.993Z,44.88
2023-05-12T09:23:15.817Z,44.93
2023-05-12T09:25:44.303Z,44.76
2023-05-12T09:28:13.209Z,44.46
2023-05-12T09:30:42.849Z,44.04
2023-05-12T09:33:13.116Z,43.62
2023-05-12T09:35:42.557Z,43.68
2023-05-12T09:38:11.928Z,43.31
2023-05-12T09:40:40.399Z,42.78
2023-05-12T09:43:08.879Z,42.13
2023-05-12T09:45:42.480Z,41.89
2023-05-12T09:48:12.003Z,41.31
2023-05-12T09:50:47.935Z,41.17
2023-05-12T09:53:18.383Z,40.76
2023-05-12T09:55:47.794Z,40.33
2023-05-12T09:58:20.852Z,40.28
2023-05-12T10:01:12.862Z,40.19
2023-05-12T10:03:42.995Z,40.11
2023-05-12T10:06:16.513Z,40.12
2023-05-12T10:08:49.045Z,39.95
2023-05-12T10:11:17.766Z,39.55
2023-05-12T10:13:47.052Z,38.96
2023-05-12T10:16:15.962Z,38.50
2023-05-12T10:18:47.117Z,38.11
2023-05-12T10:21:16.284Z,38.14
2023-05-12T10:23:44.857Z,37.84
2023-05-12T10:26:13.864Z,37.60
2023-05-12T10:28:43.133Z,37.19
2023-05-12T10:31:12.075Z,36.73
2023-05-12T10:33:40.312Z,36.62
2023-05-12T10:36:20.991Z,36.36
2023-05-12T10:38:52.017Z,35.59
2023-05-12T10:41:31.128Z,34.98
2023-05-12T10:43:59.641Z,34.68
2023-05-12T10:46:28.543Z,34.13
2023-05-12T10:49:03.529Z,33.68
2023-05-12T10:51:55.792Z,33.34
2023-05-12T10:54:25.621Z,33.25
2023-05-12T10:56:58.853Z,32.59
2023-05-12T10:59:28.088Z,32.32
2023-05-12T11:01:57.897Z,32.26
2023-05-12T11:04:37.743Z,31.72
2023-05-12T11:07:09.792Z,31.95
2023-05-12T11:09:56.855Z,31.48
2023-05-12T11:12:29.216Z,31.18
2023-05-12T11:14:59.816Z,31.33
2023-05-12T11:17:28.234Z,31.86
2023-05-12T11:19:56.995Z,31.54
2023-05-12T11:22:25.473Z,31.28
2023-05-12T11:24:53.816Z,30.58
2023-05-12T11:27:23.706Z,29.66
2023-05-12T11:30:00.696Z,29.00
2023-05-12T11:32:30.566Z,28.85
2023-05-12T11:35:19.002Z,28.96
2023-05-12T11:37:47.370Z,28.75
2023-05-12T11:40:19.528Z,28.59
2023-05-12T11:42:49.237Z,28.33
2023-05-12T11:45:29.018Z,28.11
2023-05-12T11:48:09.005Z,28.21
2023-05-12T11:50:39.764Z,28.53
2023-05-12T11:53:17.392Z,29.09
2023-05-12T11:55:55.975Z,28.90
2023-05-12T11:58:27.002Z,28.39
2023-05-12T12:00:55.392Z,28.12
2023-05-12T12:03:24.986Z,28.39
2023-05-12T12:06:01.510Z,28.36
2023-05-12T12:08:30.163Z,28.48
2023-05-12T12:10:58.329Z,28.26
2023-05-12T12:13:26.705Z,28.15
2023-05-12T12:15:55.414Z,28.35
2023-05-12T12:18:24.215Z,28.22
2023-05-12T12:20:52.450Z,28.00
2023-05-12T12:23:20.625Z,27.72
2023-05-12T12:25:48.694Z,27.64
2023-05-12T12:28:16.873Z,27.13
2023-05-12T12:30:45.038Z,27.21
2023-05-12T12:33:13.304Z,26.39
2023-05-12T12:35:41.686Z,25.86
2023-05-12T12:38:09.859Z,25.59
2023-05-12T12:40:38.430Z,25.50
2023-05-12T12:43:06.717Z,25.48
2023-05-12T12:45:34.898Z,25.58
2023-05-12T12:48:03.236Z,25.21
2023-05-12T12:50:32.474Z,25.24
2023-05-12T12:53:00.629Z,24.94
2023-05-12T12:55:29.217Z,24.62
2023-05-12T12:57:58.199Z,24.60
2023-05-12T13:00:27.092Z,24.39
2023-05-12T13:02:55.938Z,23.83
2023-05-12T13:05:24.067Z,23.65
2023-05-12T13:07:52.533Z,23.54
2023-05-12T13:10:21.325Z,23.86
2023-05-12T13:12:49.496Z,23.76
2023-05-12T13:15:19.640Z,23.85
2023-05-12T13:17:48.064Z,23.65
2023-05-12T13:20:16.888Z,23.04
2023-05-12T13:22:45.765Z,23.53
2023-05-12T13:25:13.838Z,23.28
2023-05-12T13:27:42.006Z,23.03
2023-05-12T13:30:13.380Z,22.62
2023-05-12T13:32:42.196Z,22.66
2023-05-12T13:35:10.726Z,22.68
2023-05-12T13:37:38.891Z,22.18
2023-05-12T13:40:08.026Z,21.49
2023-05-12T13:42:36.475Z,21.77
2023-05-12T13:45:05.706Z,21.66
2023-05-12T13:47:33.869Z,21.78
2023-05-12T13:50:02.258Z,22.11
2023-05-12T13:52:30.585Z,22.11
2023-05-12T13:54:58.908Z,22.44
2023-05-12T13:57:27.343Z,22.86
2023-05-12T13:59:58.079Z,23.27
2023-05-12T14:02:26.506Z,23.53
2023-05-12T14:04:55.495Z,23.68
2023-05-12T14:07:23.716Z,24.00
2023-05-12T14:09:52.089Z,24.22
2023-05-12T14:12:20.389Z,24.39
2023-05-12T14:14:50.305Z,24.33
2023-05-12T14:17:18.860Z,24.09
2023-05-12T14:19:47.146Z,24.08
2023-05-12T14:22:25.327Z,23.75
2023-05-12T14:24:55.990Z,23.74
2023-05-12T14:27:24.558Z,24.38
2023-05-12T14:29:52.802Z,24.74
2023-05-12T14:32:21.112Z,24.66
2023-05-12T14:34:49.596Z,24.22
2023-05-12T14:37:17.758Z,24.18
2023-05-12T14:39:45.932Z,23.86
2023-05-12T14:42:14.308Z,23.92
2023-05-12T14:44:42.578Z,23.62
2023-05-12T14:47:10.758Z,23.50
2023-05-12T14:49:38.932Z,23.39
2023-05-12T14:52:07.109Z,23.47
2023-05-12T14:54:35.274Z,23.66
2023-05-12T14:57:04.258Z,23.87
2023-05-12T14:59:32.765Z,24.17
2023-05-12T15:02:00.944Z,24.51
2023-05-12T15:04:29.099Z,24.86
2023-05-12T15:06:57.262Z,25.39
2023-05-12T15:09:25.433Z,25.58
2023-05-12T15:11:53.718Z,25.99
2023-05-12T15:14:21.883Z,26.22
2023-05-12T15:16:50.101Z,26.31
2023-05-12T15:19:20.685Z,26.41
2023-05-12T15:21:49.062Z,26.59
2023-05-12T15:24:17.242Z,26.89
2023-05-12T15:26:46.120Z,26.88
2023-05-12T15:29:14.500Z,26.89
2023-05-12T15:31:42.713Z,26.55
2023-05-12T15:34:10.971Z,26.70
2023-05-12T15:36:39.224Z,26.55
2023-05-12T15:39:07.406Z,26.63
2023-05-12T15:41:35.772Z,26.81
2023-05-12T15:44:03.944Z,27.28
2023-05-12T15:46:32.360Z,27.53
2023-05-12T15:49:00.705Z,27.76
2023-05-12T15:51:30.105Z,28.09
2023-05-12T15:53:58.381Z,28.25
2023-05-12T15:56:26.878Z,28.48
2023-05-12T15:58:56.969Z,28.84
2023-05-12T16:01:25.363Z,28.87
2023-05-12T16:03:54.409Z,29.25
2023-05-12T16:06:22.719Z,29.36
2023-05-12T16:08:51.092Z,29.37
2023-05-12T16:11:19.476Z,29.55
2023-05-12T16:13:47.650Z,29.86
2023-05-12T16:16:16.044Z,29.98
2023-05-12T16:18:44.317Z,30.29
2023-05-12T16:21:12.973Z,30.62
2023-05-12T16:23:41.149Z,30.49
2023-05-12T16:26:09.733Z,30.28
2023-05-12T16:28:38.012Z,30.27
2023-05-12T16:31:06.177Z,30.38
2023-05-12T16:33:34.456Z,30.68
2023-05-12T16:36:02.829Z,30.43
2023-05-12T16:38:32.577Z,30.32
2023-05-12T16:41:00.911Z,30.26
2023-05-12T16:43:29.105Z,30.35
2023-05-12T16:46:01.926Z,30.44
2023-05-12T16:48:34.502Z,30.37
2023-05-12T16:51:05.709Z,30.47
2023-05-12T16:53:34.200Z,30.48
2023-05-12T16:56:02.751Z,30.61
2023-05-12T16:58:34.297Z,31.01
2023-05-12T17:01:02.830Z,30.91
2023-05-12T17:03:31.859Z,31.15
2023-05-12T17:06:00.556Z,31.25
2023-05-12T17:08:28.829Z,31.42
2023-05-12T17:10:57.002Z,31.60
2023-05-12T17:13:25.175Z,31.75
2023-05-12T17:15:53.482Z,32.01
2023-05-12T17:18:21.785Z,32.17
2023-05-12T17:20:50.101Z,32.29
2023-05-12T17:23:18.246Z,32.60
2023-05-12T17:25:46.550Z,32.54
2023-05-12T17:28:14.719Z,32.73
2023-05-12T17:30:43.311Z,32.99
2023-05-12T17:33:11.551Z,33.25
2023-05-12T17:35:39.964Z,33.52
2023-05-12T17:38:08.191Z,33.58
2023-05-12T17:40:36.510Z,33.71
2023-05-12T17:43:04.984Z,33.83
2023-05-12T17:45:33.566Z,34.22
2023-05-12T17:48:02.014Z,34.40
2023-05-12T17:50:30.321Z,34.68
2023-05-12T17:52:58.596Z,34.62
2023-05-12T17:55:26.983Z,34.73
2023-05-12T17:57:55.145Z,34.93
2023-05-12T18:00:23.328Z,34.99
2023-05-12T18:02:51.725Z,35.16
2023-05-12T18:05:20.437Z,35.21
2023-05-12T18:07:48.858Z,35.33
2023-05-12T18:10:17.441Z,35.54
2023-05-12T18:12:45.613Z,35.61
2023-05-12T18:15:13.786Z,35.71
2023-05-12T18:17:42.046Z,35.96
2023-05-12T18:20:10.855Z,35.86
2023-05-12T18:22:39.211Z,36.02
2023-05-12T18:25:10.366Z,36.28
2023-05-12T18:27:38.946Z,36.44
2023-05-12T18:30:08.369Z,36.52
2023-05-12T18:32:36.640Z,36.56
2023-05-12T18:35:06.728Z,36.64
2023-05-12T18:37:35.221Z,36.91
2023-05-12T18:40:05.155Z,36.97
2023-05-12T18:42:33.305Z,36.98
2023-05-12T18:45:01.579Z,37.13
2023-05-12T18:47:29.756Z,37.14
2023-05-12T18:49:57.921Z,37.38
2023-05-12T18:52:26.109Z,37.46
2023-05-12T18:54:54.275Z,37.83
2023-05-12T18:57:22.683Z,38.18
2023-05-12T18:59:51.332Z,38.39
2023-05-12T19:02:19.507Z,38.25
2023-05-12T19:04:48.667Z,38.62
2023-05-12T19:07:17.277Z,38.99
2023-05-12T19:09:45.771Z,39.11
2023-05-12T19:12:13.947Z,39.20
2023-05-12T19:14:43.340Z,39.30
2023-05-12T19:17:11.817Z,39.42
2023-05-12T19:19:40.296Z,39.37
2023-05-12T19:22:08.462Z,39.54
2023-05-12T19:24:38.171Z,39.58
2023-05-12T19:27:06.458Z,39.58
2023-05-12T19:29:34.624Z,39.59
2023-05-12T19:32:03.334Z,39.67
2023-05-12T19:34:31.788Z,39.91
2023-05-12T19:37:03.026Z,39.74
2023-05-12T19:39:31.306Z,39.79
2023-05-12T19:41:59.473Z,39.71
2023-05-12T19:44:29.915Z,39.64
2023-05-12T19:47:04.783Z,39.67
2023-05-12T19:49:37.321Z,39.67
2023-05-12T19:52:06.295Z,39.65
2023-05-12T19:54:34.471Z,39.76
2023-05-12T19:57:02.642Z,39.71
2023-05-12T19:59:30.918Z,39.78
2023-05-12T20:01:59.136Z,39.78
2023-05-12T20:04:28.285Z,39.88
2023-05-12T20:06:57.496Z,39.92
2023-05-12T20:09:26.204Z,40.10
2023-05-12T20:11:54.540Z,40.08
2023-05-12T20:14:23.154Z,40.04
2023-05-12T20:16:51.307Z,40.16
2023-05-12T20:19:19.471Z,40.26
2023-05-12T20:21:47.746Z,40.37
2023-05-12T20:24:15.918Z,40.39
2023-05-12T20:26:44.088Z,40.41
2023-05-12T20:29:12.465Z,40.51
2023-05-12T20:31:40.675Z,40.66
2023-05-12T20:34:08.911Z,40.67
2023-05-12T20:36:37.082Z,40.71
2023-05-12T20:39:05.357Z,40.94
2023-05-12T20:41:33.734Z,41.04
2023-05-12T20:44:02.030Z,41.27
2023-05-12T20:46:31.177Z,41.71
2023-05-12T20:48:59.594Z,41.72
2023-05-12T20:51:27.957Z,41.78
2023-05-12T20:53:56.340Z,42.09
2023-05-12T20:56:24.623Z,42.20
2023-05-12T20:58:52.997Z,42.33
2023-05-12T21:01:21.257Z,42.63
2023-05-12T21:03:49.888Z,42.86
2023-05-12T21:06:18.539Z,42.88
2023-05-12T21:08:47.016Z,43.22
2023-05-12T21:11:18.864Z,43.26
2023-05-12T21:13:48.438Z,43.38
2023-05-12T21:16:16.931Z,43.82
2023-05-12T21:18:45.583Z,43.91
2023-05-12T21:21:13.911Z,43.91
2023-05-12T21:23:42.183Z,44.03
2023-05-12T21:26:10.643Z,43.80
2023-05-12T21:28:39.148Z,44.05
2023-05-12T21:31:07.823Z,44.09
2023-05-12T21:33:36.000Z,44.25
2023-05-12T21:36:04.688Z,44.36
2023-05-12T21:38:33.178Z,44.53
2023-05-12T21:41:01.544Z,44.94
2023-05-12T21:43:29.712Z,45.22
2023-05-12T21:46:02.508Z,45.39
2023-05-12T21:48:32.194Z,45.88
2023-05-12T21:51:01.616Z,46.19
2023-05-12T21:53:30.183Z,46.29
2023-05-12T21:55:58.359Z,46.48
2023-05-12T21:58:26.667Z,46.77
2023-05-12T22:00:54.914Z,47.09
2023-05-12T22:03:25.306Z,47.61
2023-05-12T22:05:53.611Z,47.69
2023-05-12T22:08:21.986Z,47.74
2023-05-12T22:10:50.157Z,47.94
2023-05-12T22:13:19.281Z,48.33
2023-05-12T22:15:47.552Z,48.63
2023-05-12T22:18:15.732Z,48.92
2023-05-12T22:20:43.869Z,49.12
2023-05-12T22:23:12.155Z,49.56
2023-05-12T22:25:40.432Z,49.84
2023-05-12T22:28:08.599Z,50.20
2023-05-12T22:30:36.767Z,50.51
2023-05-12T22:33:05.020Z,50.80
2023-05-12T22:35:33.439Z,51.09
2023-05-12T22:38:02.001Z,51.33
2023-05-12T22:40:30.891Z,51.29
2023-05-12T22:42:59.377Z,51.40
2023-05-12T22:45:27.640Z,51.38
2023-05-12T22:47:55.922Z,51.29
2023-05-12T22:50:24.344Z,51.41
2023-05-12T22:52:57.308Z,51.70
2023-05-12T22:55:27.465Z,51.78
2023-05-12T22:57:55.674Z,51.76
2023-05-12T23:00:24.049Z,51.74
2023-05-12T23:02:52.246Z,51.91
2023-05-12T23:05:21.213Z,52.07
2023-05-12T23:07:49.381Z,51.73
2023-05-12T23:10:17.760Z,51.78
2023-05-12T23:12:46.042Z,51.93
2023-05-12T23:15:14.427Z,51.94
2023-05-12T23:17:42.743Z,51.74
2023-05-12T23:20:11.578Z,51.83
2023-05-12T23:22:39.760Z,51.90
2023-05-12T23:25:08.739Z,51.79
2023-05-12T23:27:37.634Z,51.75
2023-05-12T23:30:07.441Z,51.81
2023-05-12T23:32:35.865Z,51.87
2023-05-12T23:35:04.610Z,51.96
2023-05-12T23:37:32.776Z,52.24
2023-05-12T23:40:00.953Z,52.45
2023-05-12T23:42:29.125Z,52.62
2023-05-12T23:44:57.497Z,53.01
2023-05-12T23:47:25.929Z,53.04
2023-05-12T23:49:54.146Z,53.15
2023-05-12T23:52:22.218Z,53.39
2023-05-12T23:54:50.291Z,53.37
2023-05-12T23:57:18.767Z,53.75
2023-05-12T23:59:46.940Z,53.92
